sensor_id;sensor_type;location;lat;lon;timestamp;P1;durP1;ratioP1;P2;durP2;ratioP2
50355;SDS011;36264;51.296;-0.602;2022-12-22T00:01:27;6.30;;;3.50;;
50355;SDS011;36264;51.296;-0.602;2022-12-22T00:04:11;6.32;;;3.78;;
50355;SDS011;36264;51.296;-0.602;2022-12-22T00:06:55;5.55;;;3.83;;
50355;SDS011;36264;51.296;-0.602;2022-12-22T00:09:39;6.50;;;4.47;;
50355;SDS011;36264;51.296;-0.602;2022-12-22T00:12:23;4.90;;;3.10;;
50355;SDS011;36264;51.296;-0.602;2022-12-22T00:15:12;4.53;;;3.13;;
50355;SDS011;36264;51.296;-0.602;2022-12-22T00:17:57;4.78;;;3.10;;
50355;SDS011;36264;51.296;-0.602;2022-12-22T00:20:42;7.22;;;3.47;;
50355;SDS011;36264;51.296;-0.602;2022-12-22T00:23:25;7.07;;;3.17;;
50355;SDS011;36264;51.296;-0.602;2022-12-22T00:26:09;5.50;;;3.67;;
50355;SDS011;36264;51.296;-0.602;2022-12-22T00:28:53;6.18;;;3.05;;
50355;SDS011;36264;51.296;-0.602;2022-12-22T00:31:38;4.85;;;2.80;;
50355;SDS011;36264;51.296;-0.602;2022-12-22T00:34:23;6.97;;;3.58;;
50355;SDS011;36264;51.296;-0.602;2022-12-22T00:37:09;5.80;;;3.38;;
50355;SDS011;36264;51.296;-0.602;2022-12-22T00:39:55;5.40;;;3.05;;
50355;SDS011;36264;51.296;-0.602;2022-12-22T00:42:38;4.70;;;3.08;;
50355;SDS011;36264;51.296;-0.602;2022-12-22T00:45:22;5.78;;;3.08;;
50355;SDS011;36264;51.296;-0.602;2022-12-22T00:48:08;4.63;;;2.70;;
50355;SDS011;36264;51.296;-0.602;2022-12-22T00:51:07;3.72;;;2.22;;
50355;SDS011;36264;51.296;-0.602;2022-12-22T00:53:51;5.25;;;3.35;;
50355;SDS011;36264;51.296;-0.602;2022-12-22T00:56:35;5.13;;;2.90;;
50355;SDS011;36264;51.296;-0.602;2022-12-22T00:59:19;5.38;;;2.85;;
50355;SDS011;36264;51.296;-0.602;2022-12-22T01:02:04;4.50;;;2.55;;
50355;SDS011;36264;51.296;-0.602;2022-12-22T01:04:48;7.78;;;3.10;;
50355;SDS011;36264;51.296;-0.602;2022-12-22T01:07:32;5.65;;;3.17;;
50355;SDS011;36264;51.296;-0.602;2022-12-22T01:10:16;4.97;;;3.08;;
50355;SDS011;36264;51.296;-0.602;2022-12-22T01:13:00;5.65;;;2.90;;
50355;SDS011;36264;51.296;-0.602;2022-12-22T01:15:44;6.00;;;2.78;;
50355;SDS011;36264;51.296;-0.602;2022-12-22T01:18:28;4.13;;;2.50;;
50355;SDS011;36264;51.296;-0.602;2022-12-22T01:21:12;4.40;;;2.67;;
50355;SDS011;36264;51.296;-0.602;2022-12-22T01:23:57;13.82;;;3.15;;
50355;SDS011;36264;51.296;-0.602;2022-12-22T01:26:40;5.22;;;2.95;;
50355;SDS011;36264;51.296;-0.602;2022-12-22T01:29:24;3.83;;;2.30;;
50355;SDS011;36264;51.296;-0.602;2022-12-22T01:32:12;4.40;;;2.53;;
50355;SDS011;36264;51.296;-0.602;2022-12-22T01:34:57;3.53;;;2.35;;
50355;SDS011;36264;51.296;-0.602;2022-12-22T01:37:42;3.65;;;2.22;;
50355;SDS011;36264;51.296;-0.602;2022-12-22T01:40:26;4.40;;;2.60;;
50355;SDS011;36264;51.296;-0.602;2022-12-22T01:43:20;3.67;;;2.08;;
50355;SDS011;36264;51.296;-0.602;2022-12-22T01:49:01;4.88;;;2.55;;
50355;SDS011;36264;51.296;-0.602;2022-12-22T01:51:45;4.68;;;2.80;;
50355;SDS011;36264;51.296;-0.602;2022-12-22T01:54:29;3.50;;;2.20;;
50355;SDS011;36264;51.296;-0.602;2022-12-22T01:57:14;3.75;;;2.30;;
50355;SDS011;36264;51.296;-0.602;2022-12-22T01:59:58;3.60;;;2.00;;
50355;SDS011;36264;51.296;-0.602;2022-12-22T02:02:42;4.38;;;2.15;;
50355;SDS011;36264;51.296;-0.602;2022-12-22T02:05:26;3.00;;;2.00;;
50355;SDS011;36264;51.296;-0.602;2022-12-22T02:08:19;3.05;;;1.80;;
50355;SDS011;36264;51.296;-0.602;2022-12-22T02:14:19;2.92;;;1.80;;
50355;SDS011;36264;51.296;-0.602;2022-12-22T02:29:02;5.93;;;2.40;;
50355;SDS011;36264;51.296;-0.602;2022-12-22T02:31:48;4.57;;;2.78;;
50355;SDS011;36264;51.296;-0.602;2022-12-22T02:34:32;5.75;;;2.30;;
50355;SDS011;36264;51.296;-0.602;2022-12-22T02:37:29;4.15;;;2.22;;
50355;SDS011;36264;51.296;-0.602;2022-12-22T02:46:32;4.20;;;2.20;;
50355;SDS011;36264;51.296;-0.602;2022-12-22T02:53:08;4.20;;;2.38;;
50355;SDS011;36264;51.296;-0.602;2022-12-22T02:55:59;4.30;;;2.45;;
50355;SDS011;36264;51.296;-0.602;2022-12-22T02:58:45;4.87;;;2.70;;
50355;SDS011;36264;51.296;-0.602;2022-12-22T03:01:29;4.53;;;2.40;;
50355;SDS011;36264;51.296;-0.602;2022-12-22T03:04:12;3.80;;;2.30;;
50355;SDS011;36264;51.296;-0.602;2022-12-22T03:06:56;4.10;;;2.42;;
50355;SDS011;36264;51.296;-0.602;2022-12-22T03:09:40;4.28;;;2.10;;
50355;SDS011;36264;51.296;-0.602;2022-12-22T03:12:24;3.80;;;2.15;;
50355;SDS011;36264;51.296;-0.602;2022-12-22T03:15:08;5.25;;;2.28;;
50355;SDS011;36264;51.296;-0.602;2022-12-22T03:17:52;4.65;;;2.70;;
50355;SDS011;36264;51.296;-0.602;2022-12-22T03:20:36;4.30;;;2.58;;
50355;SDS011;36264;51.296;-0.602;2022-12-22T03:23:20;4.50;;;2.40;;
50355;SDS011;36264;51.296;-0.602;2022-12-22T03:26:04;4.00;;;2.45;;
50355;SDS011;36264;51.296;-0.602;2022-12-22T03:28:29;3.70;;;2.40;;
50355;SDS011;36264;51.296;-0.602;2022-12-22T03:33:21;6.70;;;3.10;;
50355;SDS011;36264;51.296;-0.602;2022-12-22T03:35:47;6.32;;;3.00;;
50355;SDS011;36264;51.296;-0.602;2022-12-22T03:38:12;6.00;;;2.90;;
50355;SDS011;36264;51.296;-0.602;2022-12-22T03:40:38;5.10;;;2.70;;
50355;SDS011;36264;51.296;-0.602;2022-12-22T03:43:03;5.18;;;2.95;;
50355;SDS011;36264;51.296;-0.602;2022-12-22T03:45:47;5.13;;;2.70;;
50355;SDS011;36264;51.296;-0.602;2022-12-22T03:48:36;6.45;;;3.00;;
50355;SDS011;36264;51.296;-0.602;2022-12-22T03:51:01;6.80;;;2.75;;
50355;SDS011;36264;51.296;-0.602;2022-12-22T03:53:27;4.65;;;2.40;;
50355;SDS011;36264;51.296;-0.602;2022-12-22T03:55:52;6.90;;;3.60;;
50355;SDS011;36264;51.296;-0.602;2022-12-22T03:58:17;7.85;;;2.85;;
50355;SDS011;36264;51.296;-0.602;2022-12-22T04:00:43;7.88;;;3.83;;
50355;SDS011;36264;51.296;-0.602;2022-12-22T04:03:08;6.95;;;3.30;;
50355;SDS011;36264;51.296;-0.602;2022-12-22T04:05:33;6.15;;;3.45;;
50355;SDS011;36264;51.296;-0.602;2022-12-22T04:07:59;5.90;;;3.38;;
50355;SDS011;36264;51.296;-0.602;2022-12-22T04:10:24;4.32;;;2.50;;
50355;SDS011;36264;51.296;-0.602;2022-12-22T04:13:08;4.95;;;2.75;;
50355;SDS011;36264;51.296;-0.602;2022-12-22T04:15:33;5.75;;;3.25;;
50355;SDS011;36264;51.296;-0.602;2022-12-22T04:17:59;7.18;;;3.10;;
50355;SDS011;36264;51.296;-0.602;2022-12-22T04:20:25;4.20;;;2.33;;
50355;SDS011;36264;51.296;-0.602;2022-12-22T04:22:51;4.30;;;2.53;;
50355;SDS011;36264;51.296;-0.602;2022-12-22T04:25:16;3.70;;;2.30;;
50355;SDS011;36264;51.296;-0.602;2022-12-22T04:27:42;4.63;;;2.33;;
50355;SDS011;36264;51.296;-0.602;2022-12-22T04:30:08;4.43;;;2.53;;
50355;SDS011;36264;51.296;-0.602;2022-12-22T04:32:34;3.97;;;2.17;;
50355;SDS011;36264;51.296;-0.602;2022-12-22T04:35:00;5.15;;;2.70;;
50355;SDS011;36264;51.296;-0.602;2022-12-22T04:37:25;3.90;;;2.17;;
50355;SDS011;36264;51.296;-0.602;2022-12-22T04:39:50;3.97;;;2.10;;
50355;SDS011;36264;51.296;-0.602;2022-12-22T04:42:16;7.90;;;2.50;;
50355;SDS011;36264;51.296;-0.602;2022-12-22T04:44:41;7.65;;;2.63;;
50355;SDS011;36264;51.296;-0.602;2022-12-22T04:47:06;5.32;;;2.13;;
50355;SDS011;36264;51.296;-0.602;2022-12-22T04:49:32;9.40;;;2.08;;
50355;SDS011;36264;51.296;-0.602;2022-12-22T04:51:57;4.57;;;2.10;;
50355;SDS011;36264;51.296;-0.602;2022-12-22T04:54:22;2.95;;;1.80;;
50355;SDS011;36264;51.296;-0.602;2022-12-22T04:56:48;2.72;;;1.67;;
50355;SDS011;36264;51.296;-0.602;2022-12-22T04:59:14;5.05;;;2.15;;
50355;SDS011;36264;51.296;-0.602;2022-12-22T05:01:39;3.00;;;1.70;;
50355;SDS011;36264;51.296;-0.602;2022-12-22T05:04:05;4.18;;;1.73;;
50355;SDS011;36264;51.296;-0.602;2022-12-22T05:06:30;3.25;;;1.90;;
50355;SDS011;36264;51.296;-0.602;2022-12-22T05:08:55;3.63;;;1.67;;
50355;SDS011;36264;51.296;-0.602;2022-12-22T05:11:21;4.32;;;1.75;;
50355;SDS011;36264;51.296;-0.602;2022-12-22T05:13:46;2.92;;;1.63;;
50355;SDS011;36264;51.296;-0.602;2022-12-22T05:16:12;2.65;;;1.70;;
50355;SDS011;36264;51.296;-0.602;2022-12-22T05:18:40;3.65;;;2.00;;
50355;SDS011;36264;51.296;-0.602;2022-12-22T05:21:17;3.25;;;1.77;;
50355;SDS011;36264;51.296;-0.602;2022-12-22T05:23:45;3.78;;;1.83;;
50355;SDS011;36264;51.296;-0.602;2022-12-22T05:26:11;2.95;;;1.50;;
50355;SDS011;36264;51.296;-0.602;2022-12-22T05:28:38;3.05;;;1.63;;
50355;SDS011;36264;51.296;-0.602;2022-12-22T05:31:05;3.33;;;1.90;;
50355;SDS011;36264;51.296;-0.602;2022-12-22T05:33:32;3.78;;;1.98;;
50355;SDS011;36264;51.296;-0.602;2022-12-22T05:35:58;3.60;;;2.05;;
50355;SDS011;36264;51.296;-0.602;2022-12-22T05:38:24;7.32;;;2.70;;
50355;SDS011;36264;51.296;-0.602;2022-12-22T05:40:49;4.93;;;2.10;;
50355;SDS011;36264;51.296;-0.602;2022-12-22T05:43:14;5.28;;;2.03;;
50355;SDS011;36264;51.296;-0.602;2022-12-22T05:45:41;4.40;;;2.10;;
50355;SDS011;36264;51.296;-0.602;2022-12-22T05:48:08;4.90;;;2.10;;
50355;SDS011;36264;51.296;-0.602;2022-12-22T05:50:34;3.85;;;2.30;;
50355;SDS011;36264;51.296;-0.602;2022-12-22T05:52:59;3.25;;;1.63;;
50355;SDS011;36264;51.296;-0.602;2022-12-22T05:55:25;5.07;;;2.17;;
50355;SDS011;36264;51.296;-0.602;2022-12-22T05:57:50;3.72;;;1.70;;
50355;SDS011;36264;51.296;-0.602;2022-12-22T06:00:16;4.18;;;1.77;;
50355;SDS011;36264;51.296;-0.602;2022-12-22T06:02:42;3.03;;;1.88;;
50355;SDS011;36264;51.296;-0.602;2022-12-22T06:05:08;3.63;;;2.10;;
50355;SDS011;36264;51.296;-0.602;2022-12-22T06:07:34;2.65;;;1.65;;
50355;SDS011;36264;51.296;-0.602;2022-12-22T06:10:00;4.20;;;2.38;;
50355;SDS011;36264;51.296;-0.602;2022-12-22T06:12:25;4.47;;;2.20;;
50355;SDS011;36264;51.296;-0.602;2022-12-22T06:14:51;3.33;;;1.70;;
50355;SDS011;36264;51.296;-0.602;2022-12-22T06:17:16;2.97;;;1.73;;
50355;SDS011;36264;51.296;-0.602;2022-12-22T06:19:41;2.90;;;1.60;;
50355;SDS011;36264;51.296;-0.602;2022-12-22T06:22:07;2.95;;;1.80;;
50355;SDS011;36264;51.296;-0.602;2022-12-22T06:24:33;3.70;;;2.03;;
50355;SDS011;36264;51.296;-0.602;2022-12-22T06:26:58;3.10;;;1.60;;
50355;SDS011;36264;51.296;-0.602;2022-12-22T06:29:24;4.63;;;1.70;;
50355;SDS011;36264;51.296;-0.602;2022-12-22T06:31:49;2.28;;;1.40;;
50355;SDS011;36264;51.296;-0.602;2022-12-22T06:34:14;3.60;;;1.90;;
50355;SDS011;36264;51.296;-0.602;2022-12-22T06:36:43;3.88;;;1.60;;
50355;SDS011;36264;51.296;-0.602;2022-12-22T06:39:09;2.85;;;1.50;;
50355;SDS011;36264;51.296;-0.602;2022-12-22T06:41:34;3.10;;;1.80;;
50355;SDS011;36264;51.296;-0.602;2022-12-22T06:44:18;3.28;;;1.85;;
50355;SDS011;36264;51.296;-0.602;2022-12-22T06:46:43;4.22;;;2.20;;
50355;SDS011;36264;51.296;-0.602;2022-12-22T06:49:09;3.40;;;1.90;;
50355;SDS011;36264;51.296;-0.602;2022-12-22T06:51:34;3.58;;;1.77;;
50355;SDS011;36264;51.296;-0.602;2022-12-22T06:53:59;2.30;;;1.45;;
50355;SDS011;36264;51.296;-0.602;2022-12-22T06:56:25;3.22;;;1.80;;
50355;SDS011;36264;51.296;-0.602;2022-12-22T06:58:50;3.47;;;2.05;;
50355;SDS011;36264;51.296;-0.602;2022-12-22T07:01:15;2.92;;;1.70;;
50355;SDS011;36264;51.296;-0.602;2022-12-22T07:03:41;3.22;;;1.73;;
50355;SDS011;36264;51.296;-0.602;2022-12-22T07:06:06;2.80;;;1.67;;
50355;SDS011;36264;51.296;-0.602;2022-12-22T07:08:31;3.88;;;1.85;;
50355;SDS011;36264;51.296;-0.602;2022-12-22T07:10:57;4.50;;;2.08;;
50355;SDS011;36264;51.296;-0.602;2022-12-22T07:13:31;5.60;;;2.20;;
50355;SDS011;36264;51.296;-0.602;2022-12-22T07:15:59;3.67;;;1.90;;
50355;SDS011;36264;51.296;-0.602;2022-12-22T07:18:26;3.63;;;1.90;;
50355;SDS011;36264;51.296;-0.602;2022-12-22T07:20:52;4.45;;;2.00;;
50355;SDS011;36264;51.296;-0.602;2022-12-22T07:23:17;3.75;;;2.05;;
50355;SDS011;36264;51.296;-0.602;2022-12-22T07:25:43;3.55;;;1.80;;
50355;SDS011;36264;51.296;-0.602;2022-12-22T07:28:08;3.65;;;1.90;;
50355;SDS011;36264;51.296;-0.602;2022-12-22T07:30:34;4.45;;;2.22;;
50355;SDS011;36264;51.296;-0.602;2022-12-22T07:33:01;3.85;;;1.90;;
50355;SDS011;36264;51.296;-0.602;2022-12-22T07:35:27;2.75;;;1.65;;
50355;SDS011;36264;51.296;-0.602;2022-12-22T07:37:53;4.22;;;2.25;;
50355;SDS011;36264;51.296;-0.602;2022-12-22T07:40:18;6.88;;;2.50;;
50355;SDS011;36264;51.296;-0.602;2022-12-22T07:42:43;4.45;;;2.03;;
50355;SDS011;36264;51.296;-0.602;2022-12-22T07:45:09;4.22;;;2.10;;
50355;SDS011;36264;51.296;-0.602;2022-12-22T07:47:39;5.95;;;2.10;;
50355;SDS011;36264;51.296;-0.602;2022-12-22T07:50:05;3.78;;;1.70;;
50355;SDS011;36264;51.296;-0.602;2022-12-22T07:52:53;4.22;;;2.05;;
50355;SDS011;36264;51.296;-0.602;2022-12-22T07:55:20;5.50;;;2.20;;
50355;SDS011;36264;51.296;-0.602;2022-12-22T07:57:45;3.95;;;1.60;;
50355;SDS011;36264;51.296;-0.602;2022-12-22T08:00:11;3.63;;;1.73;;
50355;SDS011;36264;51.296;-0.602;2022-12-22T08:02:37;4.70;;;2.22;;
50355;SDS011;36264;51.296;-0.602;2022-12-22T08:05:03;5.72;;;2.70;;
50355;SDS011;36264;51.296;-0.602;2022-12-22T08:07:28;8.27;;;2.95;;
50355;SDS011;36264;51.296;-0.602;2022-12-22T08:09:54;4.35;;;2.20;;
50355;SDS011;36264;51.296;-0.602;2022-12-22T08:12:19;4.60;;;2.28;;
50355;SDS011;36264;51.296;-0.602;2022-12-22T08:14:45;5.07;;;2.30;;
50355;SDS011;36264;51.296;-0.602;2022-12-22T08:17:10;5.03;;;2.20;;
50355;SDS011;36264;51.296;-0.602;2022-12-22T08:19:36;4.95;;;2.45;;
50355;SDS011;36264;51.296;-0.602;2022-12-22T08:22:02;5.07;;;2.30;;
50355;SDS011;36264;51.296;-0.602;2022-12-22T08:24:28;5.20;;;2.50;;
50355;SDS011;36264;51.296;-0.602;2022-12-22T08:26:54;4.90;;;2.42;;
50355;SDS011;36264;51.296;-0.602;2022-12-22T08:29:23;5.40;;;2.40;;
50355;SDS011;36264;51.296;-0.602;2022-12-22T08:31:56;6.00;;;2.65;;
50355;SDS011;36264;51.296;-0.602;2022-12-22T08:34:22;6.13;;;2.92;;
50355;SDS011;36264;51.296;-0.602;2022-12-22T08:36:49;5.47;;;2.83;;
50355;SDS011;36264;51.296;-0.602;2022-12-22T08:39:19;5.38;;;2.95;;
50355;SDS011;36264;51.296;-0.602;2022-12-22T08:41:46;6.15;;;2.70;;
50355;SDS011;36264;51.296;-0.602;2022-12-22T08:44:22;5.00;;;2.83;;
50355;SDS011;36264;51.296;-0.602;2022-12-22T08:46:49;6.40;;;3.42;;
50355;SDS011;36264;51.296;-0.602;2022-12-22T08:49:16;5.43;;;2.58;;
50355;SDS011;36264;51.296;-0.602;2022-12-22T08:51:41;8.80;;;3.90;;
50355;SDS011;36264;51.296;-0.602;2022-12-22T08:54:07;5.45;;;2.92;;
50355;SDS011;36264;51.296;-0.602;2022-12-22T08:56:33;5.53;;;2.60;;
50355;SDS011;36264;51.296;-0.602;2022-12-22T08:58:59;4.75;;;2.78;;
50355;SDS011;36264;51.296;-0.602;2022-12-22T09:01:29;6.05;;;3.10;;
50355;SDS011;36264;51.296;-0.602;2022-12-22T09:03:55;4.75;;;2.53;;
50355;SDS011;36264;51.296;-0.602;2022-12-22T09:06:22;5.13;;;2.85;;
50355;SDS011;36264;51.296;-0.602;2022-12-22T09:08:52;6.38;;;2.92;;
50355;SDS011;36264;51.296;-0.602;2022-12-22T09:11:22;4.15;;;2.42;;
50355;SDS011;36264;51.296;-0.602;2022-12-22T09:13:49;4.65;;;2.40;;
50355;SDS011;36264;51.296;-0.602;2022-12-22T09:16:16;3.95;;;2.00;;
50355;SDS011;36264;51.296;-0.602;2022-12-22T09:18:41;6.07;;;2.67;;
50355;SDS011;36264;51.296;-0.602;2022-12-22T09:21:06;3.58;;;2.00;;
50355;SDS011;36264;51.296;-0.602;2022-12-22T09:23:32;4.22;;;2.45;;
50355;SDS011;36264;51.296;-0.602;2022-12-22T09:25:57;4.07;;;2.20;;
50355;SDS011;36264;51.296;-0.602;2022-12-22T09:28:22;4.63;;;2.38;;
50355;SDS011;36264;51.296;-0.602;2022-12-22T09:30:49;4.22;;;2.45;;
50355;SDS011;36264;51.296;-0.602;2022-12-22T09:33:15;5.40;;;2.58;;
50355;SDS011;36264;51.296;-0.602;2022-12-22T09:35:40;4.35;;;2.35;;
50355;SDS011;36264;51.296;-0.602;2022-12-22T09:38:06;3.83;;;2.05;;
50355;SDS011;36264;51.296;-0.602;2022-12-22T09:40:31;4.30;;;2.22;;
50355;SDS011;36264;51.296;-0.602;2022-12-22T09:42:57;4.20;;;2.30;;
50355;SDS011;36264;51.296;-0.602;2022-12-22T09:45:23;3.40;;;2.15;;
50355;SDS011;36264;51.296;-0.602;2022-12-22T09:47:49;3.83;;;2.22;;
50355;SDS011;36264;51.296;-0.602;2022-12-22T09:50:18;4.80;;;2.50;;
50355;SDS011;36264;51.296;-0.602;2022-12-22T09:52:53;5.55;;;2.15;;
50355;SDS011;36264;51.296;-0.602;2022-12-22T09:55:43;3.60;;;2.00;;
50355;SDS011;36264;51.296;-0.602;2022-12-22T09:58:32;3.67;;;2.10;;
50355;SDS011;36264;51.296;-0.602;2022-12-22T10:01:08;3.70;;;2.00;;
50355;SDS011;36264;51.296;-0.602;2022-12-22T10:03:51;4.25;;;2.10;;
50355;SDS011;36264;51.296;-0.602;2022-12-22T10:06:28;6.35;;;2.15;;
50355;SDS011;36264;51.296;-0.602;2022-12-22T10:09:10;3.17;;;1.77;;
50355;SDS011;36264;51.296;-0.602;2022-12-22T10:11:53;2.92;;;1.55;;
50355;SDS011;36264;51.296;-0.602;2022-12-22T10:14:24;5.05;;;1.80;;
50355;SDS011;36264;51.296;-0.602;2022-12-22T10:18:07;3.70;;;1.77;;
50355;SDS011;36264;51.296;-0.602;2022-12-22T10:19:53;5.50;;;1.80;;
50355;SDS011;36264;51.296;-0.602;2022-12-22T10:22:46;3.80;;;1.80;;
50355;SDS011;36264;51.296;-0.602;2022-12-22T10:25:33;6.03;;;1.70;;
50355;SDS011;36264;51.296;-0.602;2022-12-22T10:28:02;3.22;;;1.80;;
50355;SDS011;36264;51.296;-0.602;2022-12-22T10:30:33;4.45;;;1.70;;
50355;SDS011;36264;51.296;-0.602;2022-12-22T10:33:22;5.88;;;1.95;;
50355;SDS011;36264;51.296;-0.602;2022-12-22T10:40:46;5.07;;;1.75;;
50355;SDS011;36264;51.296;-0.602;2022-12-22T10:43:21;9.15;;;1.90;;
50355;SDS011;36264;51.296;-0.602;2022-12-22T10:45:50;9.57;;;1.90;;
50355;SDS011;36264;51.296;-0.602;2022-12-22T10:48:24;7.45;;;2.00;;
50355;SDS011;36264;51.296;-0.602;2022-12-22T10:50:53;12.60;;;2.35;;
50355;SDS011;36264;51.296;-0.602;2022-12-22T10:53:21;10.30;;;2.60;;
50355;SDS011;36264;51.296;-0.602;2022-12-22T10:56:06;13.10;;;2.88;;
50355;SDS011;36264;51.296;-0.602;2022-12-22T10:58:46;10.88;;;2.38;;
50355;SDS011;36264;51.296;-0.602;2022-12-22T11:01:13;16.48;;;3.45;;
50355;SDS011;36264;51.296;-0.602;2022-12-22T11:03:47;10.15;;;2.20;;
50355;SDS011;36264;51.296;-0.602;2022-12-22T11:06:12;12.75;;;3.45;;
50355;SDS011;36264;51.296;-0.602;2022-12-22T11:08:38;14.43;;;3.00;;
50355;SDS011;36264;51.296;-0.602;2022-12-22T11:11:08;13.38;;;2.97;;
50355;SDS011;36264;51.296;-0.602;2022-12-22T11:16:28;8.43;;;2.28;;
50355;SDS011;36264;51.296;-0.602;2022-12-22T11:19:12;8.00;;;2.28;;
50355;SDS011;36264;51.296;-0.602;2022-12-22T11:21:56;9.45;;;2.90;;
50355;SDS011;36264;51.296;-0.602;2022-12-22T11:24:39;13.18;;;2.63;;
50355;SDS011;36264;51.296;-0.602;2022-12-22T11:30:09;10.15;;;3.00;;
50355;SDS011;36264;51.296;-0.602;2022-12-22T11:32:50;8.15;;;2.17;;
50355;SDS011;36264;51.296;-0.602;2022-12-22T11:35:29;9.80;;;2.50;;
50355;SDS011;36264;51.296;-0.602;2022-12-22T11:40:43;11.05;;;2.55;;
50355;SDS011;36264;51.296;-0.602;2022-12-22T11:43:57;9.65;;;2.05;;
50355;SDS011;36264;51.296;-0.602;2022-12-22T11:46:09;9.52;;;2.35;;
50355;SDS011;36264;51.296;-0.602;2022-12-22T11:51:43;7.65;;;2.22;;
50355;SDS011;36264;51.296;-0.602;2022-12-22T11:58:03;11.93;;;2.50;;
50355;SDS011;36264;51.296;-0.602;2022-12-22T12:00:24;10.15;;;2.10;;
50355;SDS011;36264;51.296;-0.602;2022-12-22T12:03:57;11.77;;;2.35;;
50355;SDS011;36264;51.296;-0.602;2022-12-22T12:06:12;8.55;;;2.63;;
50355;SDS011;36264;51.296;-0.602;2022-12-22T12:08:52;9.60;;;2.40;;
50355;SDS011;36264;51.296;-0.602;2022-12-22T12:30:18;10.85;;;2.90;;
50355;SDS011;36264;51.296;-0.602;2022-12-22T12:38:26;12.63;;;2.90;;
50355;SDS011;36264;51.296;-0.602;2022-12-22T12:43:47;12.07;;;2.65;;
50355;SDS011;36264;51.296;-0.602;2022-12-22T12:52:00;10.18;;;2.40;;
50355;SDS011;36264;51.296;-0.602;2022-12-22T12:59:48;13.77;;;3.10;;
50355;SDS011;36264;51.296;-0.602;2022-12-22T13:10:27;9.30;;;2.00;;
50355;SDS011;36264;51.296;-0.602;2022-12-22T13:12:52;10.25;;;2.70;;
50355;SDS011;36264;51.296;-0.602;2022-12-22T13:15:28;9.35;;;1.90;;
50355;SDS011;36264;51.296;-0.602;2022-12-22T13:17:59;10.23;;;2.15;;
50355;SDS011;36264;51.296;-0.602;2022-12-22T13:20:35;7.63;;;2.15;;
50355;SDS011;36264;51.296;-0.602;2022-12-22T13:23:02;8.70;;;2.20;;
50355;SDS011;36264;51.296;-0.602;2022-12-22T13:28:17;8.82;;;1.95;;
50355;SDS011;36264;51.296;-0.602;2022-12-22T13:30:48;5.75;;;1.90;;
50355;SDS011;36264;51.296;-0.602;2022-12-22T13:33:17;6.15;;;1.90;;
50355;SDS011;36264;51.296;-0.602;2022-12-22T13:35:47;6.47;;;1.90;;
50355;SDS011;36264;51.296;-0.602;2022-12-22T13:40:57;5.82;;;1.88;;
50355;SDS011;36264;51.296;-0.602;2022-12-22T13:43:25;6.68;;;2.03;;
50355;SDS011;36264;51.296;-0.602;2022-12-22T13:45:55;6.20;;;1.85;;
50355;SDS011;36264;51.296;-0.602;2022-12-22T13:48:34;7.25;;;1.88;;
50355;SDS011;36264;51.296;-0.602;2022-12-22T13:51:06;7.07;;;1.95;;
50355;SDS011;36264;51.296;-0.602;2022-12-22T13:53:37;7.85;;;2.20;;
50355;SDS011;36264;51.296;-0.602;2022-12-22T13:56:12;7.10;;;2.20;;
50355;SDS011;36264;51.296;-0.602;2022-12-22T13:58:40;7.93;;;2.00;;
50355;SDS011;36264;51.296;-0.602;2022-12-22T14:03:36;7.72;;;2.03;;
50355;SDS011;36264;51.296;-0.602;2022-12-22T14:06:16;10.25;;;2.67;;
50355;SDS011;36264;51.296;-0.602;2022-12-22T14:08:49;8.02;;;2.10;;
50355;SDS011;36264;51.296;-0.602;2022-12-22T14:11:14;6.95;;;1.80;;
50355;SDS011;36264;51.296;-0.602;2022-12-22T14:13:40;8.50;;;2.33;;
50355;SDS011;36264;51.296;-0.602;2022-12-22T14:16:10;7.80;;;2.10;;
50355;SDS011;36264;51.296;-0.602;2022-12-22T14:18:38;8.75;;;2.10;;
50355;SDS011;36264;51.296;-0.602;2022-12-22T14:21:04;15.05;;;2.95;;
50355;SDS011;36264;51.296;-0.602;2022-12-22T14:23:34;6.22;;;2.13;;
50355;SDS011;36264;51.296;-0.602;2022-12-22T14:26:04;9.93;;;2.10;;
50355;SDS011;36264;51.296;-0.602;2022-12-22T14:28:33;8.20;;;1.90;;
50355;SDS011;36264;51.296;-0.602;2022-12-22T14:31:07;8.23;;;2.13;;
50355;SDS011;36264;51.296;-0.602;2022-12-22T14:33:36;10.65;;;2.10;;
50355;SDS011;36264;51.296;-0.602;2022-12-22T14:36:24;7.95;;;2.38;;
50355;SDS011;36264;51.296;-0.602;2022-12-22T14:38:50;7.18;;;2.05;;
50355;SDS011;36264;51.296;-0.602;2022-12-22T14:41:24;7.68;;;1.90;;
50355;SDS011;36264;51.296;-0.602;2022-12-22T14:44:24;9.32;;;2.55;;
50355;SDS011;36264;51.296;-0.602;2022-12-22T14:50:13;7.80;;;2.08;;
50355;SDS011;36264;51.296;-0.602;2022-12-22T14:52:45;5.60;;;1.67;;
50355;SDS011;36264;51.296;-0.602;2022-12-22T14:59:06;7.18;;;2.22;;
50355;SDS011;36264;51.296;-0.602;2022-12-22T15:01:11;5.63;;;1.80;;
50355;SDS011;36264;51.296;-0.602;2022-12-22T15:03:37;7.63;;;2.35;;
50355;SDS011;36264;51.296;-0.602;2022-12-22T15:06:23;7.78;;;2.20;;
50355;SDS011;36264;51.296;-0.602;2022-12-22T15:08:49;6.38;;;2.05;;
50355;SDS011;36264;51.296;-0.602;2022-12-22T15:11:17;7.20;;;2.40;;
50355;SDS011;36264;51.296;-0.602;2022-12-22T15:13:44;5.22;;;1.77;;
50355;SDS011;36264;51.296;-0.602;2022-12-22T15:16:13;9.15;;;2.13;;
50355;SDS011;36264;51.296;-0.602;2022-12-22T15:18:41;6.65;;;2.10;;
50355;SDS011;36264;51.296;-0.602;2022-12-22T15:21:07;8.65;;;2.00;;
50355;SDS011;36264;51.296;-0.602;2022-12-22T15:23:37;6.82;;;2.00;;
50355;SDS011;36264;51.296;-0.602;2022-12-22T15:26:03;8.95;;;2.45;;
50355;SDS011;36264;51.296;-0.602;2022-12-22T15:28:29;7.25;;;2.40;;
50355;SDS011;36264;51.296;-0.602;2022-12-22T15:30:54;7.70;;;2.35;;
50355;SDS011;36264;51.296;-0.602;2022-12-22T15:33:20;8.32;;;2.25;;
50355;SDS011;36264;51.296;-0.602;2022-12-22T15:35:45;10.52;;;2.47;;
50355;SDS011;36264;51.296;-0.602;2022-12-22T15:38:12;12.85;;;2.83;;
50355;SDS011;36264;51.296;-0.602;2022-12-22T15:40:42;9.40;;;2.78;;
50355;SDS011;36264;51.296;-0.602;2022-12-22T15:43:08;8.52;;;2.30;;
50355;SDS011;36264;51.296;-0.602;2022-12-22T15:45:33;11.07;;;2.50;;
50355;SDS011;36264;51.296;-0.602;2022-12-22T15:48:00;9.18;;;2.80;;
50355;SDS011;36264;51.296;-0.602;2022-12-22T15:50:36;12.00;;;2.88;;
50355;SDS011;36264;51.296;-0.602;2022-12-22T15:53:05;8.50;;;2.30;;
50355;SDS011;36264;51.296;-0.602;2022-12-22T15:55:38;10.53;;;2.50;;
50355;SDS011;36264;51.296;-0.602;2022-12-22T15:58:07;8.02;;;2.20;;
50355;SDS011;36264;51.296;-0.602;2022-12-22T16:00:36;14.17;;;3.07;;
50355;SDS011;36264;51.296;-0.602;2022-12-22T16:03:02;14.27;;;2.97;;
50355;SDS011;36264;51.296;-0.602;2022-12-22T16:05:28;9.13;;;2.30;;
50355;SDS011;36264;51.296;-0.602;2022-12-22T16:07:54;10.88;;;2.80;;
50355;SDS011;36264;51.296;-0.602;2022-12-22T16:10:21;13.52;;;2.70;;
50355;SDS011;36264;51.296;-0.602;2022-12-22T16:12:49;10.98;;;2.47;;
50355;SDS011;36264;51.296;-0.602;2022-12-22T16:15:20;12.45;;;2.95;;
50355;SDS011;36264;51.296;-0.602;2022-12-22T16:17:46;12.88;;;2.80;;
50355;SDS011;36264;51.296;-0.602;2022-12-22T16:20:12;19.95;;;2.72;;
50355;SDS011;36264;51.296;-0.602;2022-12-22T16:22:37;9.18;;;2.15;;
50355;SDS011;36264;51.296;-0.602;2022-12-22T16:25:04;15.90;;;3.22;;
50355;SDS011;36264;51.296;-0.602;2022-12-22T16:27:36;16.02;;;2.88;;
50355;SDS011;36264;51.296;-0.602;2022-12-22T16:30:02;10.70;;;2.72;;
50355;SDS011;36264;51.296;-0.602;2022-12-22T16:32:29;14.00;;;3.30;;
50355;SDS011;36264;51.296;-0.602;2022-12-22T16:35:05;13.82;;;2.88;;
50355;SDS011;36264;51.296;-0.602;2022-12-22T16:37:41;7.28;;;2.55;;
50355;SDS011;36264;51.296;-0.602;2022-12-22T16:40:08;7.65;;;2.33;;
50355;SDS011;36264;51.296;-0.602;2022-12-22T16:42:34;12.10;;;2.97;;
50355;SDS011;36264;51.296;-0.602;2022-12-22T16:45:01;13.27;;;2.97;;
50355;SDS011;36264;51.296;-0.602;2022-12-22T16:47:33;12.55;;;2.55;;
50355;SDS011;36264;51.296;-0.602;2022-12-22T16:50:00;13.27;;;2.80;;
50355;SDS011;36264;51.296;-0.602;2022-12-22T16:52:39;11.27;;;3.20;;
50355;SDS011;36264;51.296;-0.602;2022-12-22T16:55:15;12.90;;;3.40;;